Flight Track Log - Related Links

Times and Time Zones

All times are in EDT time to prevent confusion due to time zone crossing. See the SWA2975 flight status page for this flight to view local times or setup timezone preferences in your user account.

Time Position Orientation Groundspeed Altitude Reporting Facility
EDT Latitude Longitude Course Direction KTS MPH feet Rate Location/Type
Thu 02:38:09 AM 41.8080 -87.7740 342° North 164 189 2,400  Level FlightAware ADS-B
Thu 02:38:33 AM 41.8220 -87.7590 39° Northeast 207 238 2,800 1,167 Climbing FlightAware ADS-B
Thu 02:38:45 AM 41.8240 -87.7430 80° East 228 262 3,100 2,400 Climbing FlightAware ADS-B
Thu 02:39:13 AM 41.8200 -87.7020 97° East 246 283 4,400 2,667 Climbing FlightAware ADS-B
Thu 02:39:39 AM 41.8160 -87.6610 97° East 270 311 5,500 3,055 Climbing FlightAware ADS-B
Thu 02:40:08 AM 41.8120 -87.6110 96° East 274 315 7,200 3,107 Climbing FlightAware ADS-B
Thu 02:40:35 AM 41.8080 -87.5650 97° East 289 333 8,400 2,727 Climbing FlightAware ADS-B
Thu 02:41:03 AM 41.8060 -87.5140 93° East 297 342 9,700 2,219 Climbing FlightAware ADS-B
Thu 02:41:48 AM 41.8130 -87.4280 84° East 342 394 11,100 2,071 Climbing FlightAware ADS-B
Thu 02:42:27 AM 41.8200 -87.3380 84° East 367 422 12,600 2,370 Climbing FlightAware ADS-B
Thu 02:43:09 AM 41.8280 -87.2450 83° East 385 443 14,300 2,571 Climbing FlightAware ADS-B
Thu 02:43:51 AM 41.8360 -87.1400 84° East 397 457 16,200 2,581 Climbing FlightAware ADS-B
Thu 02:44:35 AM 41.8440 -87.0360 84° East 403 464 18,000 2,500 Climbing FlightAware ADS-B
Thu 02:45:15 AM 41.8520 -86.9350 84° East 407 468 19,700 2,415 Climbing FlightAware ADS-B
Thu 02:45:57 AM 41.8640 -86.8260 82° East 415 478 21,300 1,953 Climbing FlightAware ADS-B
Thu 02:46:41 AM 41.8780 -86.7160 80° East 430 495 22,500 1,704 Climbing FlightAware ADS-B
Thu 02:47:18 AM 41.8900 -86.6170 81° East 439 505 23,600 1,929 Climbing FlightAware ADS-B
Thu 02:48:05 AM 41.9070 -86.4850 80° East 445 512 25,200 1,931 Climbing FlightAware ADS-B
Thu 02:48:45 AM 41.9190 -86.3800 81° East 449 517 26,400 1,714 Climbing FlightAware ADS-B
Thu 02:49:29 AM 41.9340 -86.2570 81° East 457 526 27,600 1,465 Climbing FlightAware ADS-B
Thu 02:50:11 AM 41.9490 -86.1340 81° East 466 536 28,500 1,286 Climbing FlightAware ADS-B
Thu 02:50:53 AM 41.9640 -86.0130 80° East 475 547 29,400 1,244 Climbing FlightAware ADS-B
Thu 02:51:33 AM 41.9770 -85.8980 81° East 483 556 30,200 1,443 Climbing FlightAware ADS-B
Thu 02:52:12 AM 41.9910 -85.7830 81° East 480 552 31,300 1,605 Climbing FlightAware ADS-B
Thu 02:52:59 AM 42.0060 -85.6480 81° East 478 550 32,500 1,465 Climbing FlightAware ADS-B
Thu 02:53:38 AM 42.0200 -85.5320 81° East 477 549 33,400 1,350 Climbing FlightAware ADS-B
Thu 02:54:19 AM 42.0340 -85.4100 81° East 479 551 34,300 1,157 Climbing FlightAware ADS-B
Thu 02:55:01 AM 42.0470 -85.2910 82° East 478 550 35,000 494 Climbing FlightAware ADS-B
Thu 02:55:44 AM 42.0620 -85.1600 81° East 475 547 35,000  Level FlightAware ADS-B
Thu 02:56:27 AM 42.0750 -85.0340 82° East 473 544 35,000  Level FlightAware ADS-B
Thu 02:57:11 AM 42.0890 -84.9080 81° East 470 541 35,000  Level FlightAware ADS-B
Thu 02:57:47 AM 42.1000 -84.8060 82° East 466 536 35,000  Level FlightAware ADS-B
Thu 02:58:33 AM 42.1140 -84.6720 82° East 464 534 35,000  Level FlightAware ADS-B
Thu 02:59:15 AM 42.1270 -84.5520 82° East 464 534 35,000 78 Level FlightAware ADS-B
Thu 02:59:50 AM 42.1370 -84.4570 82° East 475 547 35,100 506 Climbing FlightAware ADS-B
Thu 03:03:12 AM 42.1950 -83.8910 82° East 475 547 37,000 477 Climbing FlightAware ADS-B
Thu 03:03:49 AM 42.2090 -83.7560 82° East 475 547 37,000  Level FlightAware ADS-B
Thu 03:04:35 AM 42.2220 -83.6220 82° East 475 547 37,000  Level FlightAware ADS-B
Thu 03:05:15 AM 42.2330 -83.5030 83° East 475 547 37,000  Level FlightAware ADS-B
Thu 03:06:01 AM 42.2460 -83.3690 82° East 474 545 37,000  Level FlightAware ADS-B
Thu 03:06:41 AM 42.2570 -83.2530 83° East 473 544 37,000  Level FlightAware ADS-B
Thu 03:07:26 AM 42.2690 -83.1180 83° East 473 544 37,000  Level FlightAware ADS-B
Thu 03:08:04 AM 42.2800 -83.0070 82° East 472 543 37,000  Level FlightAware ADS-B
Thu 03:08:41 AM 42.2890 -82.8990 84° East 473 544 37,000  Level FlightAware ADS-B
Thu 03:09:28 AM 42.3020 -82.7610 83° East 474 545 37,000  Level FlightAware ADS-B
Thu 03:10:09 AM 42.3120 -82.6440 83° East 475 547 37,000  Level FlightAware ADS-B
Thu 03:10:53 AM 42.3240 -82.5130 83° East 476 548 37,000  Level FlightAware ADS-B
Thu 03:11:35 AM 42.3340 -82.3890 84° East 479 551 37,000  Level FlightAware ADS-B
Thu 03:12:18 AM 42.3460 -82.2600 83° East 482 555 37,000  Level FlightAware ADS-B
Thu 03:12:56 AM 42.3550 -82.1450 84° East 485 558 37,000  Level FlightAware ADS-B
Thu 03:13:35 AM 42.3630 -82.0540 83° East 486 559 37,000  Level FlightAware ADS-B
Thu 03:14:24 AM 42.3750 -81.9060 84° East 489 563 37,000  Level FlightAware ADS-B
Thu 03:14:57 AM 42.3830 -81.8060 84° East 489 563 37,000  Level FlightAware ADS-B
Thu 03:15:43 AM 42.3940 -81.6780 83° East 489 563 37,000  Level FlightAware ADS-B
Thu 03:17:24 AM 42.4180 -81.3620 84° East 487 560 37,000  Level FlightAware ADS-B
Thu 03:18:01 AM 42.4270 -81.2490 84° East 486 559 37,000  Level FlightAware ADS-B
Thu 03:18:42 AM 42.4360 -81.1240 84° East 485 558 37,000  Level FlightAware ADS-B
Thu 03:19:31 AM 42.4470 -80.9780 84° East 482 555 37,000  Level FlightAware ADS-B
Thu 03:20:25 AM 42.4610 -80.7890 84° East 481 554 37,000  Level FlightAware ADS-B
Thu 03:21:05 AM 42.4690 -80.6680 85° East 479 551 37,000  Level FlightAware ADS-B
Thu 03:21:49 AM 42.4780 -80.5390 85° East 478 550 37,000  Level FlightAware ADS-B
Thu 03:22:33 AM 42.4870 -80.4070 85° East 477 549 37,000  Level FlightAware ADS-B
Thu 03:23:11 AM 42.4950 -80.2950 84° East 476 548 37,000  Level FlightAware ADS-B
Thu 03:23:55 AM 42.5040 -80.1630 85° East 477 549 37,000  Level FlightAware ADS-B
Thu 03:24:39 AM 42.5120 -80.0320 85° East 479 551 37,000  Level FlightAware ADS-B
Thu 03:25:21 AM 42.5200 -79.9080 85° East 481 554 37,000  Level FlightAware ADS-B
Thu 03:26:03 AM 42.5280 -79.7850 85° East 480 552 37,000  Level FlightAware ADS-B
Thu 03:26:43 AM 42.5360 -79.6600 85° East 481 554 37,000  Level FlightAware ADS-B
Thu 03:27:29 AM 42.5440 -79.5240 85° East 480 552 37,000  Level FlightAware ADS-B
Thu 03:28:07 AM 42.5510 -79.4080 85° East 479 551 37,000  Level FlightAware ADS-B
Thu 03:28:47 AM 42.5580 -79.2900 85° East 478 550 37,000  Level FlightAware ADS-B
Thu 03:29:33 AM 42.5660 -79.1530 85° East 479 551 37,000  Level FlightAware ADS-B
Thu 03:29:57 AM 42.5700 -79.0810 86° East 479 551 37,000  Level FlightAware ADS-B
Thu 03:32:28 AM 42.5950 -78.6320 86° East 477 549 37,000  Level FlightAware ADS-B
Thu 03:33:07 AM 42.6010 -78.5150 86° East 476 548 37,000  Level FlightAware ADS-B
Thu 03:33:45 AM 42.6070 -78.4020 86° East 477 549 37,000  Level FlightAware ADS-B
Thu 03:34:32 AM 42.6140 -78.2640 86° East 477 549 37,000  Level FlightAware ADS-B
Thu 03:35:12 AM 42.6190 -78.1470 87° East 476 548 37,000  Level FlightAware ADS-B
Thu 03:35:52 AM 42.6250 -78.0270 86° East 475 547 37,000  Level FlightAware ADS-B
Thu 03:36:32 AM 42.6310 -77.9030 86° East 475 547 37,000  Level FlightAware ADS-B
Thu 03:37:21 AM 42.6380 -77.7610 86° East 474 545 37,000  Level FlightAware ADS-B
Thu 03:38:00 AM 42.6430 -77.6450 87° East 474 545 37,000  Level FlightAware ADS-B
Thu 03:38:42 AM 42.6480 -77.5190 87° East 474 545 37,000  Level FlightAware ADS-B
Thu 03:39:26 AM 42.6540 -77.3890 86° East 475 547 37,000  Level FlightAware ADS-B
Thu 03:40:06 AM 42.6580 -77.2700 87° East 476 548 37,000  Level FlightAware ADS-B
Thu 03:40:48 AM 42.6630 -77.1440 87° East 477 549 37,000  Level FlightAware ADS-B
Thu 03:41:30 AM 42.6680 -77.0200 87° East 477 549 37,000  Level FlightAware ADS-B
Thu 03:42:10 AM 42.6730 -76.9000 87° East 476 548 37,000 -429 Level FlightAware ADS-B
Thu 03:42:54 AM 42.6780 -76.7680 87° East 469 540 36,400 -1,605 Descending FlightAware ADS-B
Thu 03:43:36 AM 42.6820 -76.6440 87° East 469 540 34,700 -2,302 Descending FlightAware ADS-B
Thu 03:44:20 AM 42.6860 -76.5160 88° East 462 532 33,100 -2,071 Descending FlightAware ADS-B
Thu 03:45:00 AM 42.6900 -76.4010 87° East 456 525 31,800 -1,976 Descending FlightAware ADS-B
Thu 03:45:42 AM 42.6940 -76.2840 87° East 449 517 30,400 -1,953 Descending FlightAware ADS-B
Thu 03:46:26 AM 42.6980 -76.1610 87° East 442 509 29,000 -1,953 Descending FlightAware ADS-B
Thu 03:47:08 AM 42.7010 -76.0440 88° East 434 499 27,600 -1,975 Descending FlightAware ADS-B
Thu 03:47:45 AM 42.7040 -75.9460 88° East 426 490 26,400 -1,926 Descending FlightAware ADS-B
Thu 03:48:29 AM 42.7080 -75.8300 87° East 417 480 25,000 -1,909 Descending FlightAware ADS-B
Thu 03:49:13 AM 42.7110 -75.7150 88° East 407 468 23,600 -1,909 Descending FlightAware ADS-B
Thu 03:49:57 AM 42.7140 -75.6030 88° East 398 458 22,200 -1,880 Descending FlightAware ADS-B
Thu 03:50:36 AM 42.7170 -75.5090 87° East 391 450 21,000 -1,786 Descending FlightAware ADS-B
Thu 03:51:21 AM 42.7190 -75.4000 89° East 382 440 19,700 -1,663 Descending FlightAware ADS-B
Thu 03:51:59 AM 42.7210 -75.3110 88° East 374 430 18,700 -2,000 Descending FlightAware ADS-B
Thu 03:52:45 AM 42.7240 -75.2020 88° East 379 436 16,900 -1,977 Descending FlightAware ADS-B
Thu 03:53:27 AM 42.7260 -75.1030 88° East 365 420 15,800 -1,683 Descending FlightAware ADS-B
Thu 03:54:07 AM 42.7280 -75.0120 88° East 357 411 14,600 -1,875 Descending FlightAware ADS-B
Thu 03:54:47 AM 42.7300 -74.9240 88° East 355 409 13,300 -975 Descending FlightAware ADS-B
Thu 03:55:27 AM 42.7310 -74.8480 89° East 355 409 13,300  Level FlightAware ADS-B
Thu 03:56:16 AM 42.7340 -74.7550 87° East 355 409 13,300 -1,438 Level FlightAware ADS-B
Thu 03:57:03 AM 42.7333 -74.6506 87° East 313 360 11,000 -1,725 Descending Boston Center
Thu 03:57:36 AM 42.7344 -74.5828 89° East 315 362 11,000 -1,226 Level Boston Center
Thu 03:58:36 AM 42.7367 -74.4725 88° East 290 334 9,100 -1,650 Descending Boston Center
Thu 03:59:36 AM 42.7364 -74.3622 90° East 290 334 7,700 -1,600 Descending Boston Center
Thu 04:00:36 AM 42.7400 -74.2606 87° East 282 325 5,900 -1,650 Descending Boston Center
Thu 04:01:36 AM 42.7417 -74.1589 89° East 271 312 4,400 -1,600 Descending Boston Center
Thu 04:02:06 AM 42.7425 -74.1136 89° East 267 307 3,500 -1,300 Descending Boston Center
Thu 04:02:36 AM 42.7431 -74.0714 89° East 271 312 3,100 -800 Descending Boston Center
Thu 04:03:06 AM 42.7439 -74.0175 89° East 253 291 2,700 -400 Descending Boston Center
Thu 04:03:36 AM 42.7444 -73.9639 89° East 261 300 2,700 -787 Level Boston Center
Thu 04:04:07 AM 42.7450 -73.9328 89° East 203 234 1,900 -1,055 Descending Boston Center
Thu 04:05:07 AM 42.7478 -73.8678 87° East 166 191 1,100 -800 Descending Boston Center

Login

Don't have an account? Register now (free) for customized features, flight alerts, and more!